createdAt,value
2022-08-10T00:01:56.932Z,99246.44
2022-08-10T00:06:58.792Z,99241.91
2022-08-10T00:12:00.753Z,99238.38
2022-08-10T00:17:02.650Z,99242.69
2022-08-10T00:22:04.673Z,99239.16
2022-08-10T00:27:51.759Z,99239.56
2022-08-10T00:32:28.959Z,99237.56
2022-08-10T00:37:30.886Z,99238.75
2022-08-10T00:42:32.879Z,99238.00
2022-08-10T00:47:36.776Z,99232.47
2022-08-10T00:52:40.267Z,99225.38
2022-08-10T00:57:42.625Z,99233.28
2022-08-10T01:02:44.914Z,99237.22
2022-08-10T01:08:11.346Z,99228.59
2022-08-10T01:13:30.947Z,99230.97
2022-08-10T01:18:55.159Z,99219.97
2022-08-10T01:24:26.110Z,99224.28
2022-08-10T01:29:46.147Z,99219.16
2022-08-10T01:35:12.078Z,99215.22
2022-08-10T01:40:17.073Z,99222.34
2022-08-10T01:45:24.426Z,99225.06
2022-08-10T01:50:59.870Z,99222.28
2022-08-10T01:56:03.118Z,99218.75
2022-08-10T02:01:07.878Z,99225.41
2022-08-10T02:06:15.190Z,99228.56
2022-08-10T02:11:18.882Z,99228.56
2022-08-10T02:16:21.994Z,99230.06
2022-08-10T02:21:24.776Z,99234.81
2022-08-10T02:26:27.188Z,99237.16
2022-08-10T02:31:30.422Z,99227.34
2022-08-10T02:36:35.987Z,99228.53
2022-08-10T02:45:14.336Z,99228.88
2022-08-10T02:47:50.951Z,99226.16
2022-08-10T02:53:56.609Z,99223.78
2022-08-10T02:58:40.672Z,99224.50
2022-08-10T03:03:52.127Z,99221.34
2022-08-10T03:08:55.952Z,99229.19
2022-08-10T03:14:00.865Z,99221.28
2022-08-10T03:19:05.389Z,99216.16
2022-08-10T03:24:28.371Z,99214.97
2022-08-10T03:30:23.227Z,99225.94
2022-08-10T03:34:54.314Z,99229.06
2022-08-10T03:39:56.336Z,99231.38
2022-08-10T03:44:59.293Z,99226.69
2022-08-10T03:50:05.507Z,99227.03
2022-08-10T03:56:28.878Z,99232.84
2022-08-10T04:00:51.246Z,99242.28
2022-08-10T04:05:53.640Z,99251.00
2022-08-10T04:10:55.727Z,99255.69
2022-08-10T04:15:57.667Z,99257.09
2022-08-10T04:21:07.099Z,99259.56
2022-08-10T04:26:10.508Z,99255.31
2022-08-10T04:31:17.346Z,99256.16
2022-08-10T04:36:22.325Z,99263.31
2022-08-10T04:41:24.594Z,99269.31
2022-08-10T04:46:55.864Z,99261.47
2022-08-10T04:51:48.770Z,99267.41
2022-08-10T04:56:50.623Z,99274.06
2022-08-10T05:02:28.726Z,99276.47
2022-08-10T05:07:18.142Z,99277.25
2022-08-10T05:12:20.581Z,99278.44
2022-08-10T05:17:23.009Z,99274.94
2022-08-10T05:22:24.884Z,99275.75
2022-08-10T05:27:26.786Z,99281.31
2022-08-10T05:32:28.763Z,99281.31
2022-08-10T05:38:11.846Z,99269.53
2022-08-10T05:42:53.680Z,99277.38
2022-08-10T05:48:55.411Z,99275.41
2022-08-10T05:53:59.538Z,99267.13
2022-08-10T05:58:40.957Z,99285.19
2022-08-10T06:03:48.556Z,99279.63
2022-08-10T06:08:51.321Z,99281.84
2022-08-10T06:14:16.139Z,99279.78
2022-08-10T06:19:19.389Z,99278.44
2022-08-10T06:24:25.540Z,99273.13
2022-08-10T06:29:34.922Z,99276.63
2022-08-10T06:34:41.153Z,99274.59
2022-08-10T06:39:44.027Z,99283.28
2022-08-10T06:45:00.637Z,99284.84
2022-08-10T06:50:10.034Z,99285.09
2022-08-10T06:55:16.763Z,99280.84
2022-08-10T07:00:21.088Z,99297.06
2022-08-10T07:05:28.811Z,99290.97
2022-08-10T07:10:41.368Z,99286.41
2022-08-10T07:15:59.332Z,99275.41
2022-08-10T07:21:04.224Z,99285.03
2022-08-10T07:26:08.739Z,99277.56
2022-08-10T07:31:36.833Z,99280.50
2022-08-10T07:36:36.790Z,99285.94
2022-08-10T07:41:42.316Z,99290.69
2022-08-10T07:46:47.237Z,99286.31
2022-08-10T07:51:54.863Z,99287.69
2022-08-10T07:57:01.897Z,99281.94
2022-08-10T08:02:06.468Z,99274.03
2022-08-10T08:07:08.790Z,99287.13
2022-08-10T08:12:12.503Z,99285.06
2022-08-10T08:17:16.897Z,99278.91
2022-08-10T08:24:09.123Z,99292.13
2022-08-10T08:27:47.676Z,99287.03
2022-08-10T08:32:50.938Z,99285.00
2022-08-10T08:38:32.719Z,99284.03
2022-08-10T08:43:31.585Z,99277.13
2022-08-10T08:48:46.865Z,99278.81
2022-08-10T08:54:07.783Z,99283.22
2022-08-10T08:59:40.493Z,99279.84
2022-08-10T09:05:09.439Z,99272.44
2022-08-10T09:10:48.341Z,99260.06
2022-08-10T09:16:10.952Z,99264.47
2022-08-10T09:21:24.186Z,99256.16
2022-08-10T09:26:33.475Z,99250.00
2022-08-10T09:32:55.032Z,99248.81
2022-08-10T09:38:01.658Z,99252.72
2022-08-10T09:43:26.129Z,99244.50
2022-08-10T09:48:54.932Z,99249.41
2022-08-10T09:54:07.761Z,99246.19
2022-08-10T09:59:26.737Z,99238.91
2022-08-10T10:05:10.612Z,99244.53
2022-08-10T10:10:16.871Z,99251.59
2022-08-10T10:15:34.990Z,99237.25
2022-08-10T10:21:07.541Z,99223.59
2022-08-10T10:26:24.529Z,99214.59
2022-08-10T10:31:52.285Z,99220.34
2022-08-10T10:36:55.974Z,99218.75
2022-08-10T10:42:42.143Z,99229.81
2022-08-10T10:47:50.496Z,99207.75
2022-08-10T10:53:13.858Z,99219.56
2022-08-10T10:58:28.298Z,99215.50
2022-08-10T11:03:45.720Z,99215.16
2022-08-10T11:08:53.996Z,99218.88
2022-08-10T11:14:24.551Z,99217.34
2022-08-10T11:20:02.782Z,99200.28
2022-08-10T11:25:15.038Z,99197.31
2022-08-10T11:30:26.053Z,99201.34
2022-08-10T11:35:38.627Z,99199.53
2022-08-10T11:41:14.602Z,99185.19
2022-08-10T11:46:30.815Z,99187.81
2022-08-10T11:51:44.058Z,99180.06
2022-08-10T11:56:53.016Z,99180.00
2022-08-10T12:01:57.274Z,99175.50
2022-08-10T12:07:04.927Z,99166.34
2022-08-10T12:12:30.712Z,99165.59
2022-08-10T12:17:38.392Z,99173.81
2022-08-10T12:22:56.905Z,99169.22
2022-08-10T12:28:09.433Z,99168.13
2022-08-10T12:33:21.293Z,99167.59
2022-08-10T12:38:35.211Z,99165.22
2022-08-10T12:44:04.924Z,99159.03
2022-08-10T12:49:26.476Z,99154.63
2022-08-10T12:54:32.139Z,99145.00
2022-08-10T12:59:43.292Z,99139.09
2022-08-10T13:04:49.566Z,99134.06
2022-08-10T13:09:56.410Z,99134.06
2022-08-10T13:15:43.133Z,99125.78
2022-08-10T13:20:34.270Z,99112.66
2022-08-10T13:25:39.015Z,99115.41
2022-08-10T13:30:43.264Z,99104.47
2022-08-10T13:35:58.566Z,99110.09
2022-08-10T13:41:05.154Z,99099.59
2022-08-10T13:46:07.502Z,99102.31
2022-08-10T13:51:57.695Z,99094.44
2022-08-10T13:56:52.485Z,99085.28
2022-08-10T14:01:56.010Z,99076.47
2022-08-10T14:07:00.673Z,99075.72
2022-08-10T14:12:02.826Z,99079.50
2022-08-10T14:17:07.642Z,99071.84
2022-08-10T14:22:09.611Z,99071.03
2022-08-10T14:27:14.187Z,99059.75
2022-08-10T14:32:21.805Z,99052.84
2022-08-10T14:37:33.214Z,99044.66
2022-08-10T14:42:49.278Z,99048.53
2022-08-10T14:48:08.553Z,99040.59
2022-08-10T14:53:26.655Z,99032.56
2022-08-10T14:58:59.091Z,99035.44
2022-08-10T15:04:13.264Z,99040.00
2022-08-10T15:09:20.146Z,99034.50
2022-08-10T15:14:42.183Z,99030.00
2022-08-10T15:20:02.187Z,99024.94
2022-08-10T15:25:18.646Z,99026.56
2022-08-10T15:30:30.036Z,99023.66
2022-08-10T15:35:52.850Z,99018.69
2022-08-10T15:40:56.947Z,99024.63
2022-08-10T15:46:00.281Z,99016.84
2022-08-10T15:51:06.456Z,99015.63
2022-08-10T15:56:15.391Z,99011.00
2022-08-10T16:02:12.857Z,99006.97
2022-08-10T16:07:03.450Z,99004.13
2022-08-10T16:12:13.104Z,99006.63
2022-08-10T16:17:17.643Z,99004.75
2022-08-10T16:22:35.853Z,98989.31
2022-08-10T16:27:41.314Z,98989.16
2022-08-10T16:32:46.644Z,98985.72
2022-08-10T16:37:58.328Z,98981.72
2022-08-10T16:43:04.112Z,98985.78
2022-08-10T16:48:07.040Z,98986.91
2022-08-10T16:53:14.304Z,98978.06
2022-08-10T16:58:21.091Z,98975.59
2022-08-10T17:04:06.172Z,98988.97
2022-08-10T17:08:55.981Z,98986.19
2022-08-10T17:14:04.237Z,98975.16
2022-08-10T17:19:17.933Z,98979.03
2022-08-10T17:24:25.561Z,98984.00
2022-08-10T17:29:58.165Z,98977.63
2022-08-10T17:35:00.115Z,98983.38
2022-08-10T17:40:08.091Z,98984.78
2022-08-10T17:45:47.749Z,98974.97
2022-08-10T17:50:53.580Z,98974.97
2022-08-10T17:55:58.226Z,98971.56
2022-08-10T18:01:38.267Z,98980.69
2022-08-10T18:06:28.380Z,98981.72
2022-08-10T18:11:35.483Z,98982.94
2022-08-10T18:16:41.702Z,98984.94
2022-08-10T18:21:48.262Z,98980.06
2022-08-10T18:26:52.691Z,98987.91
2022-08-10T18:31:59.419Z,98992.31
2022-08-10T18:37:06.125Z,98994.28
2022-08-10T18:42:44.952Z,98993.19
2022-08-10T18:47:59.106Z,99009.22
2022-08-10T18:53:12.354Z,99013.19
2022-08-10T18:58:51.829Z,99017.13
2022-08-10T19:03:59.865Z,99022.53
2022-08-10T19:09:45.616Z,99030.16
2022-08-10T19:15:19.774Z,99022.88
2022-08-10T19:20:33.045Z,99014.19
2022-08-10T19:26:43.302Z,99024.81
2022-08-10T19:31:43.990Z,99024.81
2022-08-10T19:37:15.327Z,99019.69
2022-08-10T19:42:31.313Z,99029.56
2022-08-10T19:48:18.931Z,99017.09
2022-08-10T19:53:29.578Z,99020.72
2022-08-10T19:58:55.286Z,99017.03
2022-08-10T20:04:05.865Z,99019.16
2022-08-10T20:09:30.046Z,99031.47
2022-08-10T20:14:53.052Z,99029.22
2022-08-10T20:20:11.767Z,99019.19
2022-08-10T20:25:34.059Z,99012.25
2022-08-10T20:30:39.897Z,99015.78
2022-08-10T20:35:58.602Z,99014.19
2022-08-10T20:41:15.357Z,99011.97
2022-08-10T20:46:17.190Z,99024.66
2022-08-10T20:51:59.091Z,99019.63
2022-08-10T20:57:55.847Z,99011.94
2022-08-10T21:03:20.722Z,99012.47
2022-08-10T21:09:08.499Z,99019.31
2022-08-10T21:14:45.874Z,99029.03
2022-08-10T21:20:14.239Z,99027.44
2022-08-10T21:25:29.776Z,99022.06
2022-08-10T21:31:04.440Z,99031.91
2022-08-10T21:36:21.640Z,99035.34
2022-08-10T21:41:56.999Z,99033.91
2022-08-10T21:48:06.655Z,99029.22
2022-08-10T21:53:44.060Z,99040.53
2022-08-10T21:59:20.398Z,99028.09
2022-08-10T22:04:45.500Z,99037.78
2022-08-10T22:10:09.123Z,99037.56
2022-08-10T22:15:42.592Z,99043.59
2022-08-10T22:21:49.514Z,99033.38
2022-08-10T22:27:46.572Z,99036.38
2022-08-10T22:33:00.752Z,99035.41
2022-08-10T22:38:32.517Z,99023.75
2022-08-10T22:43:54.803Z,99026.41
2022-08-10T22:49:00.663Z,99025.81
2022-08-10T22:54:37.324Z,99020.38
2022-08-10T22:59:39.389Z,99039.53
2022-08-10T23:04:47.817Z,99031.75
2022-08-10T23:10:11.929Z,99028.75
2022-08-10T23:15:43.925Z,99030.16
2022-08-10T23:20:48.448Z,99026.84
2022-08-10T23:25:57.388Z,99026.88
2022-08-10T23:31:00.937Z,99030.44
2022-08-10T23:36:31.881Z,99027.69
2022-08-10T23:41:28.521Z,99027.69
2022-08-10T23:46:38.027Z,99022.97
2022-08-10T23:51:56.357Z,99019.13
2022-08-10T23:57:01.693Z,99017.63
